sensor_id;sensor_type;location;lat;lon;timestamp;pressure;altitude;pressure_sealevel;temperature;humidity
16431;BME280;8325;49.284;7.238;2023-10-13T04:01:42;98538.78;;;14.28;100.00
16431;BME280;8325;49.284;7.238;2023-10-13T04:05:59;98539.19;;;14.25;100.00
16431;BME280;8325;49.284;7.238;2023-10-13T04:10:17;98542.03;;;14.30;100.00
16431;BME280;8325;49.284;7.238;2023-10-13T04:14:48;98548.31;;;14.29;100.00
16431;BME280;8325;49.284;7.238;2023-10-13T04:19:29;98547.28;;;14.23;100.00
16431;BME280;8325;49.284;7.238;2023-10-13T04:23:41;98552.50;;;14.17;100.00
16431;BME280;8325;49.284;7.238;2023-10-13T04:28:14;98544.00;;;14.15;100.00
16431;BME280;8325;49.284;7.238;2023-10-13T04:32:27;98546.84;;;14.13;100.00
16431;BME280;8325;49.284;7.238;2023-10-13T04:36:49;98545.47;;;14.24;100.00
16431;BME280;8325;49.284;7.238;2023-10-13T04:41:08;98533.94;;;14.25;100.00
16431;BME280;8325;49.284;7.238;2023-10-13T04:45:33;98530.72;;;14.23;100.00
16431;BME280;8325;49.284;7.238;2023-10-13T04:49:45;98524.22;;;14.19;100.00
16431;BME280;8325;49.284;7.238;2023-10-13T04:53:57;98523.22;;;14.13;100.00
16431;BME280;8325;49.284;7.238;2023-10-13T04:58:13;98518.75;;;14.14;100.00
16431;BME280;8325;49.284;7.238;2023-10-13T05:02:47;98509.25;;;14.13;100.00
16431;BME280;8325;49.284;7.238;2023-10-13T05:07:11;98503.00;;;14.14;100.00
16431;BME280;8325;49.284;7.238;2023-10-13T05:11:42;98503.19;;;14.19;100.00
16431;BME280;8325;49.284;7.238;2023-10-13T05:16:12;98495.31;;;14.19;100.00
16431;BME280;8325;49.284;7.238;2023-10-13T05:20:42;98501.41;;;14.19;100.00
16431;BME280;8325;49.284;7.238;2023-10-13T05:25:29;98493.09;;;14.16;100.00
16431;BME280;8325;49.284;7.238;2023-10-13T05:29:59;98495.53;;;14.17;100.00
16431;BME280;8325;49.284;7.238;2023-10-13T05:34:29;98484.22;;;14.17;100.00
16431;BME280;8325;49.284;7.238;2023-10-13T05:38:59;98482.22;;;14.25;100.00
16431;BME280;8325;49.284;7.238;2023-10-13T05:43:30;98489.06;;;14.20;100.00
16431;BME280;8325;49.284;7.238;2023-10-13T05:48:00;98493.13;;;14.29;100.00
16431;BME280;8325;49.284;7.238;2023-10-13T05:52:23;98494.97;;;14.35;100.00
16431;BME280;8325;49.284;7.238;2023-10-13T05:56:53;98500.41;;;14.34;100.00
16431;BME280;8325;49.284;7.238;2023-10-13T06:01:23;98500.63;;;14.32;100.00
16431;BME280;8325;49.284;7.238;2023-10-13T06:05:54;98508.09;;;14.35;100.00
16431;BME280;8325;49.284;7.238;2023-10-13T06:10:24;98502.47;;;14.45;100.00
16431;BME280;8325;49.284;7.238;2023-10-13T06:14:54;98497.84;;;14.54;100.00
16431;BME280;8325;49.284;7.238;2023-10-13T06:19:24;98493.00;;;14.64;100.00
16431;BME280;8325;49.284;7.238;2023-10-13T06:24:14;98490.38;;;14.77;100.00
16431;BME280;8325;49.284;7.238;2023-10-13T06:28:45;98503.53;;;14.97;100.00
16431;BME280;8325;49.284;7.238;2023-10-13T06:32:57;98507.97;;;15.16;100.00
16431;BME280;8325;49.284;7.238;2023-10-13T06:37:10;98501.25;;;15.40;100.00
16431;BME280;8325;49.284;7.238;2023-10-13T06:41:34;98496.34;;;15.57;100.00
16431;BME280;8325;49.284;7.238;2023-10-13T06:45:52;98499.78;;;15.71;100.00
16431;BME280;8325;49.284;7.238;2023-10-13T06:50:14;98503.16;;;15.85;100.00
16431;BME280;8325;49.284;7.238;2023-10-13T06:54:31;98495.41;;;15.97;100.00
16431;BME280;8325;49.284;7.238;2023-10-13T06:58:45;98496.56;;;16.14;100.00
16431;BME280;8325;49.284;7.238;2023-10-13T07:02:59;98488.38;;;16.22;100.00
16431;BME280;8325;49.284;7.238;2023-10-13T07:07:30;98486.34;;;16.24;100.00
16431;BME280;8325;49.284;7.238;2023-10-13T07:11:41;98493.97;;;16.39;100.00
16431;BME280;8325;49.284;7.238;2023-10-13T07:15:55;98495.94;;;16.44;100.00
16431;BME280;8325;49.284;7.238;2023-10-13T07:20:26;98495.03;;;16.63;100.00
16431;BME280;8325;49.284;7.238;2023-10-13T07:24:41;98510.06;;;16.63;100.00
16431;BME280;8325;49.284;7.238;2023-10-13T07:28:53;98514.50;;;16.62;100.00
16431;BME280;8325;49.284;7.238;2023-10-13T07:33:05;98523.81;;;16.65;100.00
16431;BME280;8325;49.284;7.238;2023-10-13T07:37:17;98519.50;;;16.70;100.00
16431;BME280;8325;49.284;7.238;2023-10-13T07:41:31;98508.09;;;16.83;100.00
16431;BME280;8325;49.284;7.238;2023-10-13T07:45:44;98496.41;;;16.97;100.00
16431;BME280;8325;49.284;7.238;2023-10-13T07:55:54;98500.66;;;17.60;100.00
16431;BME280;8325;49.284;7.238;2023-10-13T08:00:14;98497.56;;;17.63;100.00
16431;BME280;8325;49.284;7.238;2023-10-13T08:04:38;98511.09;;;17.55;100.00
16431;BME280;8325;49.284;7.238;2023-10-13T08:08:49;98497.00;;;17.61;100.00
16431;BME280;8325;49.284;7.238;2023-10-13T08:13:01;98506.69;;;17.67;100.00
16431;BME280;8325;49.284;7.238;2023-10-13T08:17:13;98498.53;;;17.69;100.00
16431;BME280;8325;49.284;7.238;2023-10-13T08:21:28;98493.47;;;17.67;100.00
16431;BME280;8325;49.284;7.238;2023-10-13T08:25:43;98482.47;;;17.89;100.00
16431;BME280;8325;49.284;7.238;2023-10-13T08:30:18;98478.97;;;18.07;100.00
16431;BME280;8325;49.284;7.238;2023-10-13T08:34:41;98467.44;;;18.31;100.00
16431;BME280;8325;49.284;7.238;2023-10-13T08:38:56;98461.28;;;18.49;100.00
16431;BME280;8325;49.284;7.238;2023-10-13T08:43:12;98462.59;;;18.70;100.00
16431;BME280;8325;49.284;7.238;2023-10-13T08:47:24;98452.16;;;18.99;100.00
16431;BME280;8325;49.284;7.238;2023-10-13T08:51:47;98439.94;;;19.33;100.00
16431;BME280;8325;49.284;7.238;2023-10-13T08:56:08;98444.72;;;19.60;100.00
16431;BME280;8325;49.284;7.238;2023-10-13T09:00:20;98441.81;;;19.73;100.00
16431;BME280;8325;49.284;7.238;2023-10-13T09:04:58;98436.47;;;20.13;100.00
16431;BME280;8325;49.284;7.238;2023-10-13T09:09:21;98429.50;;;20.24;100.00
16431;BME280;8325;49.284;7.238;2023-10-13T09:13:38;98431.28;;;20.35;100.00
16431;BME280;8325;49.284;7.238;2023-10-13T09:17:56;98440.81;;;20.65;100.00
16431;BME280;8325;49.284;7.238;2023-10-13T09:22:26;98428.78;;;20.45;100.00
16431;BME280;8325;49.284;7.238;2023-10-13T09:26:48;98432.88;;;20.36;100.00
16431;BME280;8325;49.284;7.238;2023-10-13T09:31:05;98434.16;;;20.34;100.00
16431;BME280;8325;49.284;7.238;2023-10-13T09:35:21;98426.63;;;20.42;100.00
16431;BME280;8325;49.284;7.238;2023-10-13T09:39:34;98429.56;;;20.58;99.06
16431;BME280;8325;49.284;7.238;2023-10-13T09:43:56;98438.00;;;20.55;100.00
16431;BME280;8325;49.284;7.238;2023-10-13T09:48:11;98431.38;;;20.74;100.00
16431;BME280;8325;49.284;7.238;2023-10-13T09:52:29;98423.25;;;20.98;100.00
16431;BME280;8325;49.284;7.238;2023-10-13T09:56:47;98422.88;;;21.11;99.25
16431;BME280;8325;49.284;7.238;2023-10-13T10:01:08;98417.44;;;21.40;95.06
16431;BME280;8325;49.284;7.238;2023-10-13T10:05:24;98418.28;;;21.45;97.05
16431;BME280;8325;49.284;7.238;2023-10-13T10:09:36;98425.16;;;21.63;94.15
16431;BME280;8325;49.284;7.238;2023-10-13T10:14:10;98413.06;;;21.50;92.91
16431;BME280;8325;49.284;7.238;2023-10-13T10:18:23;98407.44;;;21.47;92.70
16431;BME280;8325;49.284;7.238;2023-10-13T10:22:41;98400.53;;;21.29;94.64
16431;BME280;8325;49.284;7.238;2023-10-13T10:26:59;98400.72;;;21.22;94.81
16431;BME280;8325;49.284;7.238;2023-10-13T10:31:11;98405.16;;;21.55;93.61
16431;BME280;8325;49.284;7.238;2023-10-13T10:35:33;98405.47;;;21.86;94.07
16431;BME280;8325;49.284;7.238;2023-10-13T10:39:44;98395.81;;;22.07;89.29
16431;BME280;8325;49.284;7.238;2023-10-13T10:43:56;98392.28;;;22.23;87.68
16431;BME280;8325;49.284;7.238;2023-10-13T10:48:14;98380.94;;;22.38;87.56
16431;BME280;8325;49.284;7.238;2023-10-13T10:52:33;98367.50;;;22.55;88.00
16431;BME280;8325;49.284;7.238;2023-10-13T10:56:48;98364.94;;;22.70;86.96
16431;BME280;8325;49.284;7.238;2023-10-13T11:01:07;98363.53;;;22.58;84.43
16431;BME280;8325;49.284;7.238;2023-10-13T11:05:25;98359.28;;;22.62;85.74
16431;BME280;8325;49.284;7.238;2023-10-13T11:09:44;98359.06;;;22.63;86.01
16431;BME280;8325;49.284;7.238;2023-10-13T11:13:56;98346.94;;;22.93;85.40
16431;BME280;8325;49.284;7.238;2023-10-13T11:18:31;98342.31;;;23.15;85.60
16431;BME280;8325;49.284;7.238;2023-10-13T11:22:50;98335.13;;;23.26;80.98
16431;BME280;8325;49.284;7.238;2023-10-13T11:27:02;98328.78;;;23.37;79.57
16431;BME280;8325;49.284;7.238;2023-10-13T11:31:14;98327.72;;;23.49;78.41
16431;BME280;8325;49.284;7.238;2023-10-13T11:35:35;98323.47;;;23.48;75.71
16431;BME280;8325;49.284;7.238;2023-10-13T11:40:06;98316.53;;;23.52;75.96
16431;BME280;8325;49.284;7.238;2023-10-13T11:44:27;98303.53;;;23.65;76.48
16431;BME280;8325;49.284;7.238;2023-10-13T11:48:44;98294.47;;;23.92;73.37
16431;BME280;8325;49.284;7.238;2023-10-13T11:52:58;98298.78;;;23.93;72.51
16431;BME280;8325;49.284;7.238;2023-10-13T11:57:09;98300.88;;;23.76;70.89
16431;BME280;8325;49.284;7.238;2023-10-13T12:01:21;98291.22;;;23.64;73.09
16431;BME280;8325;49.284;7.238;2023-10-13T12:11:38;98277.31;;;23.22;74.35
16431;BME280;8325;49.284;7.238;2023-10-13T12:15:52;98272.50;;;23.13;74.47
16431;BME280;8325;49.284;7.238;2023-10-13T12:20:08;98270.34;;;23.05;76.09
16431;BME280;8325;49.284;7.238;2023-10-13T12:24:29;98254.34;;;23.00;76.97
16431;BME280;8325;49.284;7.238;2023-10-13T12:28:46;98256.47;;;22.98;76.90
16431;BME280;8325;49.284;7.238;2023-10-13T12:33:05;98239.41;;;22.99;74.06
16431;BME280;8325;49.284;7.238;2023-10-13T12:37:23;98242.34;;;22.97;75.43
16431;BME280;8325;49.284;7.238;2023-10-13T12:41:50;98237.03;;;22.97;74.04
16431;BME280;8325;49.284;7.238;2023-10-13T12:46:20;98223.97;;;22.96;74.60
16431;BME280;8325;49.284;7.238;2023-10-13T12:50:51;98216.75;;;22.96;73.77
16431;BME280;8325;49.284;7.238;2023-10-13T12:55:19;98220.78;;;22.94;75.95
16431;BME280;8325;49.284;7.238;2023-10-13T12:59:36;98222.06;;;22.91;74.31
16431;BME280;8325;49.284;7.238;2023-10-13T13:03:51;98204.81;;;23.04;71.26
16431;BME280;8325;49.284;7.238;2023-10-13T13:08:07;98198.44;;;23.10;73.92
16431;BME280;8325;49.284;7.238;2023-10-13T13:12:18;98204.34;;;23.28;74.58
16431;BME280;8325;49.284;7.238;2023-10-13T13:16:31;98195.28;;;23.49;74.63
16431;BME280;8325;49.284;7.238;2023-10-13T13:20:42;98182.47;;;23.56;73.83
16431;BME280;8325;49.284;7.238;2023-10-13T13:25:07;98180.34;;;23.63;70.05
16431;BME280;8325;49.284;7.238;2023-10-13T13:29:20;98168.09;;;23.62;70.35
16431;BME280;8325;49.284;7.238;2023-10-13T13:33:32;98157.97;;;23.59;70.25
16431;BME280;8325;49.284;7.238;2023-10-13T13:37:49;98160.34;;;23.66;68.72
16431;BME280;8325;49.284;7.238;2023-10-13T13:42:01;98146.22;;;23.65;66.26
16431;BME280;8325;49.284;7.238;2023-10-13T13:46:15;98128.91;;;23.68;65.31
16431;BME280;8325;49.284;7.238;2023-10-13T13:50:28;98110.78;;;23.70;64.38
16431;BME280;8325;49.284;7.238;2023-10-13T13:54:41;98114.53;;;23.74;62.47
16431;BME280;8325;49.284;7.238;2023-10-13T13:58:53;98100.91;;;23.71;62.45
16431;BME280;8325;49.284;7.238;2023-10-13T14:03:05;98099.81;;;23.66;61.40
16431;BME280;8325;49.284;7.238;2023-10-13T14:07:18;98094.50;;;23.66;61.84
16431;BME280;8325;49.284;7.238;2023-10-13T14:11:36;98086.25;;;23.73;60.57
16431;BME280;8325;49.284;7.238;2023-10-13T14:15:50;98081.41;;;23.96;58.00
16431;BME280;8325;49.284;7.238;2023-10-13T14:20:08;98081.59;;;24.09;56.20
16431;BME280;8325;49.284;7.238;2023-10-13T14:24:27;98082.59;;;24.24;56.61
16431;BME280;8325;49.284;7.238;2023-10-13T14:28:39;98070.50;;;24.47;52.88
16431;BME280;8325;49.284;7.238;2023-10-13T14:33:01;98063.25;;;24.52;52.41
16431;BME280;8325;49.284;7.238;2023-10-13T14:37:13;98052.28;;;24.59;52.98
16431;BME280;8325;49.284;7.238;2023-10-13T14:41:25;98045.09;;;24.54;52.03
16431;BME280;8325;49.284;7.238;2023-10-13T14:45:36;98039.78;;;24.54;52.39
16431;BME280;8325;49.284;7.238;2023-10-13T14:49:48;98028.66;;;24.32;52.39
16431;BME280;8325;49.284;7.238;2023-10-13T14:54:00;98018.59;;;24.13;53.18
16431;BME280;8325;49.284;7.238;2023-10-13T14:58:12;98021.09;;;24.00;52.89
16431;BME280;8325;49.284;7.238;2023-10-13T15:02:27;98029.66;;;23.92;53.30
16431;BME280;8325;49.284;7.238;2023-10-13T15:06:39;98022.50;;;23.82;55.07
16431;BME280;8325;49.284;7.238;2023-10-13T15:10:51;98013.47;;;23.73;54.97
16431;BME280;8325;49.284;7.238;2023-10-13T15:15:03;98013.72;;;23.66;54.29
16431;BME280;8325;49.284;7.238;2023-10-13T15:19:17;98016.94;;;23.58;53.36
16431;BME280;8325;49.284;7.238;2023-10-13T15:23:29;98019.63;;;23.53;53.33
16431;BME280;8325;49.284;7.238;2023-10-13T15:27:43;98008.72;;;23.44;53.89
16431;BME280;8325;49.284;7.238;2023-10-13T15:31:56;98000.19;;;23.42;54.54
16431;BME280;8325;49.284;7.238;2023-10-13T15:36:11;97997.28;;;23.33;54.66
16431;BME280;8325;49.284;7.238;2023-10-13T15:40:27;97996.78;;;23.26;54.67
16431;BME280;8325;49.284;7.238;2023-10-13T15:44:39;97987.47;;;23.13;55.83
16431;BME280;8325;49.284;7.238;2023-10-13T15:48:54;97980.81;;;23.11;53.69
16431;BME280;8325;49.284;7.238;2023-10-13T15:53:25;97976.56;;;23.10;55.29
16431;BME280;8325;49.284;7.238;2023-10-13T15:57:37;97974.44;;;22.96;55.46
16431;BME280;8325;49.284;7.238;2023-10-13T16:01:48;97963.22;;;22.84;56.40
16431;BME280;8325;49.284;7.238;2023-10-13T16:06:06;97961.91;;;22.77;56.28
16431;BME280;8325;49.284;7.238;2023-10-13T16:10:21;97949.94;;;22.69;55.59
16431;BME280;8325;49.284;7.238;2023-10-13T16:14:33;97948.59;;;22.56;56.68
16431;BME280;8325;49.284;7.238;2023-10-13T16:18:47;97948.06;;;22.44;57.25
16431;BME280;8325;49.284;7.238;2023-10-13T16:22:59;97945.94;;;22.31;58.61
16431;BME280;8325;49.284;7.238;2023-10-13T16:27:10;97935.28;;;22.20;57.68
16431;BME280;8325;49.284;7.238;2023-10-13T16:31:25;97943.75;;;22.12;58.85
16431;BME280;8325;49.284;7.238;2023-10-13T16:35:43;97940.00;;;22.03;59.71
16431;BME280;8325;49.284;7.238;2023-10-13T16:39:58;97943.69;;;21.92;60.16
16431;BME280;8325;49.284;7.238;2023-10-13T16:44:16;97936.75;;;21.86;59.44
16431;BME280;8325;49.284;7.238;2023-10-13T16:48:28;97933.31;;;21.85;58.80
16431;BME280;8325;49.284;7.238;2023-10-13T16:52:40;97918.16;;;21.86;57.52
16431;BME280;8325;49.284;7.238;2023-10-13T16:56:52;97912.84;;;21.91;56.17
16431;BME280;8325;49.284;7.238;2023-10-13T17:01:11;97916.03;;;21.88;56.77
16431;BME280;8325;49.284;7.238;2023-10-13T17:05:23;97925.59;;;21.78;57.67
16431;BME280;8325;49.284;7.238;2023-10-13T17:09:40;97922.91;;;21.68;58.19
16431;BME280;8325;49.284;7.238;2023-10-13T17:13:52;97919.44;;;21.63;57.33
16431;BME280;8325;49.284;7.238;2023-10-13T17:18:05;97912.81;;;21.65;55.76
16431;BME280;8325;49.284;7.238;2023-10-13T17:22:17;97919.16;;;21.64;56.05
16431;BME280;8325;49.284;7.238;2023-10-13T17:26:29;97916.78;;;21.68;54.98
16431;BME280;8325;49.284;7.238;2023-10-13T17:30:42;97920.78;;;21.70;54.80
16431;BME280;8325;49.284;7.238;2023-10-13T17:34:57;97916.53;;;21.69;54.40
16431;BME280;8325;49.284;7.238;2023-10-13T17:39:11;97905.88;;;21.64;55.15
16431;BME280;8325;49.284;7.238;2023-10-13T17:43:23;97912.53;;;21.67;54.85
16431;BME280;8325;49.284;7.238;2023-10-13T17:47:36;97904.06;;;21.75;53.37
16431;BME280;8325;49.284;7.238;2023-10-13T17:51:50;97901.63;;;21.63;54.84
16431;BME280;8325;49.284;7.238;2023-10-13T17:56:12;97883.03;;;21.63;54.15
16431;BME280;8325;49.284;7.238;2023-10-13T18:00:24;97887.00;;;21.55;55.34
16431;BME280;8325;49.284;7.238;2023-10-13T18:04:36;97882.47;;;21.56;55.55
16431;BME280;8325;49.284;7.238;2023-10-13T18:08:50;97895.22;;;21.54;55.08
16431;BME280;8325;49.284;7.238;2023-10-13T18:13:02;97893.66;;;21.63;55.26
16431;BME280;8325;49.284;7.238;2023-10-13T18:17:13;97892.31;;;21.55;55.62
16431;BME280;8325;49.284;7.238;2023-10-13T18:21:27;97884.06;;;21.57;56.40
16431;BME280;8325;49.284;7.238;2023-10-13T18:25:40;97883.28;;;21.56;57.01
16431;BME280;8325;49.284;7.238;2023-10-13T18:29:56;97880.34;;;21.58;57.19
16431;BME280;8325;49.284;7.238;2023-10-13T18:34:08;97876.59;;;21.49;58.86
16431;BME280;8325;49.284;7.238;2023-10-13T18:38:20;97882.44;;;21.41;59.22
16431;BME280;8325;49.284;7.238;2023-10-13T18:42:35;97879.16;;;21.33;59.38
16431;BME280;8325;49.284;7.238;2023-10-13T18:46:53;97874.19;;;21.37;59.33
16431;BME280;8325;49.284;7.238;2023-10-13T18:51:07;97873.31;;;21.31;59.93
16431;BME280;8325;49.284;7.238;2023-10-13T18:55:19;97869.28;;;21.24;60.44
16431;BME280;8325;49.284;7.238;2023-10-13T18:59:30;97871.97;;;21.29;60.62
16431;BME280;8325;49.284;7.238;2023-10-13T19:03:45;97869.06;;;21.25;60.83
16431;BME280;8325;49.284;7.238;2023-10-13T19:08:03;97866.13;;;21.22;61.70
16431;BME280;8325;49.284;7.238;2023-10-13T19:12:19;97870.59;;;21.16;62.60
16431;BME280;8325;49.284;7.238;2023-10-13T19:16:34;97873.78;;;21.13;62.88
16431;BME280;8325;49.284;7.238;2023-10-13T19:20:47;97880.91;;;21.07;64.06
16431;BME280;8325;49.284;7.238;2023-10-13T19:25:01;97876.13;;;21.04;64.06
16431;BME280;8325;49.284;7.238;2023-10-13T19:29:13;97879.81;;;20.98;65.17
16431;BME280;8325;49.284;7.238;2023-10-13T19:33:25;97880.03;;;20.97;66.13
16431;BME280;8325;49.284;7.238;2023-10-13T19:37:37;97875.84;;;21.01;66.30
16431;BME280;8325;49.284;7.238;2023-10-13T19:41:54;97885.44;;;21.07;66.13
16431;BME280;8325;49.284;7.238;2023-10-13T19:46:06;97890.16;;;21.00;67.05
16431;BME280;8325;49.284;7.238;2023-10-13T19:50:22;97897.06;;;21.01;66.69
16431;BME280;8325;49.284;7.238;2023-10-13T19:54:33;97894.44;;;21.06;66.96
16431;BME280;8325;49.284;7.238;2023-10-13T19:58:46;97896.03;;;21.07;67.44
16431;BME280;8325;49.284;7.238;2023-10-13T20:03:01;97895.25;;;21.11;67.27
16431;BME280;8325;49.284;7.238;2023-10-13T20:07:15;97905.06;;;21.06;67.76
16431;BME280;8325;49.284;7.238;2023-10-13T20:11:27;97898.69;;;21.07;67.79
16431;BME280;8325;49.284;7.238;2023-10-13T20:15:40;97901.38;;;21.12;67.10
16431;BME280;8325;49.284;7.238;2023-10-13T20:19:56;97900.59;;;21.17;67.57
16431;BME280;8325;49.284;7.238;2023-10-13T20:24:16;97908.28;;;21.13;67.42
16431;BME280;8325;49.284;7.238;2023-10-13T20:28:43;97905.09;;;21.11;67.69
16431;BME280;8325;49.284;7.238;2023-10-13T20:33:00;97905.31;;;21.04;68.47
16431;BME280;8325;49.284;7.238;2023-10-13T20:37:24;97896.00;;;21.02;68.81
16431;BME280;8325;49.284;7.238;2023-10-13T20:41:41;97901.28;;;20.97;69.17
16431;BME280;8325;49.284;7.238;2023-10-13T20:46:12;97895.97;;;20.97;68.94
16431;BME280;8325;49.284;7.238;2023-10-13T20:50:25;97900.78;;;21.00;68.91
16431;BME280;8325;49.284;7.238;2023-10-13T20:54:37;97900.56;;;21.06;68.58
16431;BME280;8325;49.284;7.238;2023-10-13T20:58:49;97897.59;;;20.98;69.41
16431;BME280;8325;49.284;7.238;2023-10-13T21:03:23;97891.50;;;20.97;69.09
16431;BME280;8325;49.284;7.238;2023-10-13T21:07:36;97899.19;;;20.99;69.19
16431;BME280;8325;49.284;7.238;2023-10-13T21:11:47;97898.63;;;20.97;68.92
16431;BME280;8325;49.284;7.238;2023-10-13T21:16:00;97896.50;;;20.94;69.93
16431;BME280;8325;49.284;7.238;2023-10-13T21:20:13;97903.94;;;20.91;69.69
16431;BME280;8325;49.284;7.238;2023-10-13T21:24:26;97907.66;;;20.90;69.96
16431;BME280;8325;49.284;7.238;2023-10-13T21:28:37;97901.78;;;20.88;70.08
